Time;durP1;ratioP1;P1;durP2;ratioP2;P2;SDS_P1;SDS_P2;PMS_P1;PMS_P2;Temp;Humidity;BMP_temperature;BMP_pressure;BME280_temperature;BME280_humidity;BME280_pressure;Samples;Min_cycle;Max_cycle;Signal;HPM_P1;HPM_P2
2022/09/24 00:00:10;;;;;;;7.22;3.60;;;12.10;99.90;;;;;;7371302;32;20147;-60
2022/09/24 00:04:12;;;;;;;7.70;4.15;;;12.10;99.90;;;;;;7373888;32;20241;-60
2022/09/24 00:08:15;;;;;;;6.10;3.83;;;12.10;99.90;;;;;;7377761;32;20110;-60
2022/09/24 00:12:17;;;;;;;7.05;3.62;;;12.10;99.90;;;;;;7368239;32;20771;-61
2022/09/24 00:16:21;;;;;;;7.20;3.35;;;12.10;99.90;;;;;;7365585;32;20852;-61
2022/09/24 00:20:23;;;;;;;9.20;4.15;;;12.10;99.90;;;;;;7378053;31;20257;-61
2022/09/24 00:28:49;;;;;;;7.20;3.67;;;11.90;99.90;;;;;;7391547;32;20549;-61
2022/09/24 00:32:50;;;;;;;8.05;3.90;;;11.90;99.90;;;;;;7381157;32;20103;-61
2022/09/24 00:36:52;;;;;;;8.70;3.78;;;11.80;99.90;;;;;;7372641;32;20368;-60
2022/09/24 00:40:54;;;;;;;7.60;3.80;;;11.80;99.90;;;;;;7372467;32;20185;-60
2022/09/24 00:44:56;;;;;;;8.63;4.15;;;11.70;99.90;;;;;;7376622;32;20166;-62
2022/09/24 00:49:04;;;;;;;11.12;3.85;;;11.70;99.90;;;;;;7369925;32;20131;-60
2022/09/24 00:53:20;;;;;;;8.32;4.03;;;11.60;99.90;;;;;;7382179;32;20138;-60
2022/09/24 00:57:23;;;;;;;8.63;4.72;;;11.70;99.90;;;;;;7377234;32;21958;-61
2022/09/24 01:01:24;;;;;;;7.45;4.03;;;11.60;99.90;;;;;;7367893;32;20122;-61
2022/09/24 01:05:26;;;;;;;6.15;4.07;;;11.70;99.90;;;;;;7367564;32;20267;-61
2022/09/24 01:09:28;;;;;;;5.82;4.07;;;11.60;99.90;;;;;;7381246;32;20554;-62
2022/09/24 01:13:48;;;;;;;8.23;4.00;;;11.70;99.90;;;;;;7378645;31;20182;-61
2022/09/24 01:17:55;;;;;;;6.87;4.25;;;11.60;99.90;;;;;;7376928;32;20135;-61
2022/09/24 01:22:18;;;;;;;7.07;4.22;;;11.60;99.90;;;;;;7373597;32;20103;-61
2022/09/24 01:26:36;;;;;;;6.75;4.03;;;11.60;99.90;;;;;;7370804;32;20107;-60
2022/09/24 01:30:40;;;;;;;5.50;3.72;;;11.60;99.90;;;;;;7375265;31;20160;-61
2022/09/24 01:34:51;;;;;;;8.68;4.57;;;11.60;99.90;;;;;;7379239;32;20134;-61
2022/09/24 01:38:54;;;;;;;8.80;4.87;;;11.60;99.90;;;;;;7363339;32;20137;-60
2022/09/24 01:42:58;;;;;;;10.48;4.80;;;11.60;99.90;;;;;;7379103;32;20546;-62
2022/09/24 01:47:03;;;;;;;8.63;4.55;;;11.60;99.90;;;;;;7370473;32;20146;-61
2022/09/24 01:51:23;;;;;;;7.05;4.55;;;11.70;99.90;;;;;;7372208;32;20174;-60
2022/09/24 01:55:28;;;;;;;8.65;5.07;;;11.70;99.90;;;;;;7367616;32;20190;-59
2022/09/24 01:59:46;;;;;;;7.78;5.10;;;11.70;99.90;;;;;;7373883;32;20114;-60
2022/09/24 02:03:55;;;;;;;11.38;4.68;;;11.70;99.90;;;;;;7378931;32;20106;-59
2022/09/24 02:08:05;;;;;;;9.73;4.72;;;11.60;99.90;;;;;;7380126;32;20734;-61
2022/09/24 02:12:28;;;;;;;9.68;5.03;;;11.60;99.90;;;;;;7364242;32;20471;-59
2022/09/24 02:16:34;;;;;;;8.18;5.05;;;11.70;99.90;;;;;;7370350;32;20233;-61
2022/09/24 02:20:40;;;;;;;9.73;5.53;;;11.70;99.90;;;;;;7375933;32;20115;-61
2022/09/24 02:24:49;;;;;;;8.57;5.72;;;11.70;99.90;;;;;;7372869;32;20450;-60
2022/09/24 02:28:51;;;;;;;12.00;4.90;;;11.70;99.90;;;;;;7374405;32;20497;-61
2022/09/24 02:32:54;;;;;;;8.18;5.05;;;11.70;99.90;;;;;;7367244;32;20210;-60
2022/09/24 02:37:05;;;;;;;15.00;6.12;;;11.70;99.90;;;;;;7366433;32;20788;-60
2022/09/24 02:41:07;;;;;;;8.95;5.20;;;11.60;99.90;;;;;;7367949;32;20133;-64
2022/09/24 02:45:10;;;;;;;10.52;7.43;;;11.70;99.90;;;;;;7371219;32;20542;-62
2022/09/24 02:49:13;;;;;;;9.65;6.82;;;11.70;99.90;;;;;;7375664;32;20168;-60
2022/09/24 02:53:14;;;;;;;9.25;6.05;;;11.70;99.90;;;;;;7375327;32;20137;-60
2022/09/24 02:57:17;;;;;;;7.45;5.68;;;11.70;99.90;;;;;;7371587;32;20103;-59
2022/09/24 03:01:19;;;;;;;8.13;6.20;;;11.70;99.90;;;;;;7364876;32;20480;-60
2022/09/24 03:05:21;;;;;;;12.00;7.32;;;11.70;99.90;;;;;;7373115;32;20127;-60
2022/09/24 03:09:22;;;;;;;12.10;6.20;;;11.60;99.90;;;;;;7376720;32;20495;-60
2022/09/24 03:13:24;;;;;;;9.52;6.82;;;11.60;99.90;;;;;;7372108;32;20205;-59
2022/09/24 03:17:27;;;;;;;8.40;6.80;;;11.60;99.90;;;;;;7375334;32;20115;-59
2022/09/24 03:21:29;;;;;;;10.80;6.70;;;11.60;99.90;;;;;;7385018;32;20111;-62
2022/09/24 03:25:30;;;;;;;11.00;7.80;;;11.60;99.90;;;;;;7377473;32;20221;-62
2022/09/24 03:33:53;;;;;;;12.13;7.60;;;11.50;99.90;;;;;;7371888;32;20123;-59
2022/09/24 03:37:55;;;;;;;10.48;7.00;;;11.60;99.90;;;;;;7379197;32;20110;-60
2022/09/24 03:41:56;;;;;;;8.68;6.15;;;11.50;99.90;;;;;;7380606;32;20137;-59
2022/09/24 03:45:58;;;;;;;11.73;6.30;;;11.50;99.90;;;;;;7372518;32;20118;-60
2022/09/24 03:50:01;;;;;;;9.95;6.60;;;11.50;99.90;;;;;;7389710;32;20128;-61
2022/09/24 03:54:03;;;;;;;10.63;6.57;;;11.40;99.90;;;;;;7376619;32;20155;-59
2022/09/24 03:58:04;;;;;;;11.88;7.47;;;11.40;99.90;;;;;;7375188;32;20115;-59
2022/09/24 04:02:06;;;;;;;11.55;6.60;;;11.40;99.90;;;;;;7393413;32;20110;-59
2022/09/24 04:06:08;;;;;;;10.63;7.43;;;11.40;99.90;;;;;;7363520;32;20133;-60
2022/09/24 04:10:10;;;;;;;11.55;6.57;;;11.30;99.90;;;;;;7380047;32;20119;-60
2022/09/24 04:14:12;;;;;;;8.48;6.50;;;11.30;99.90;;;;;;7375259;32;20129;-60
2022/09/24 04:18:14;;;;;;;12.60;6.57;;;11.30;99.90;;;;;;7374813;32;20224;-59
2022/09/24 04:22:16;;;;;;;13.10;7.10;;;11.20;99.90;;;;;;7374656;32;20507;-59
2022/09/24 04:26:17;;;;;;;11.18;7.37;;;11.20;99.90;;;;;;7370291;32;20107;-62
2022/09/24 04:30:19;;;;;;;10.80;7.47;;;11.20;99.90;;;;;;7376093;32;20186;-59
2022/09/24 04:34:21;;;;;;;12.63;8.00;;;11.20;99.90;;;;;;7374463;32;20127;-60
2022/09/24 04:38:22;;;;;;;8.93;7.78;;;11.20;99.90;;;;;;7372029;32;20130;-59
2022/09/24 04:42:24;;;;;;;11.68;7.75;;;11.20;99.90;;;;;;7380898;32;20115;-61
2022/09/24 04:46:26;;;;;;;11.18;8.13;;;11.20;99.90;;;;;;7368456;32;20119;-60
2022/09/24 04:50:32;;;;;;;12.65;8.20;;;11.10;99.90;;;;;;7372986;32;20130;-60
2022/09/24 04:54:33;;;;;;;11.82;6.87;;;11.20;99.90;;;;;;7378313;32;20186;-59
2022/09/24 04:58:35;;;;;;;11.63;7.47;;;11.10;99.90;;;;;;7376375;32;20130;-60
2022/09/24 05:02:37;;;;;;;12.05;8.50;;;11.10;99.90;;;;;;7377856;32;20129;-60
2022/09/24 05:06:38;;;;;;;12.10;7.68;;;11.10;99.90;;;;;;7369131;32;20103;-59
2022/09/24 05:10:40;;;;;;;14.73;8.75;;;11.10;99.90;;;;;;7369256;32;20213;-60
2022/09/24 05:14:42;;;;;;;18.70;9.88;;;11.10;99.90;;;;;;7368626;32;20114;-59
2022/09/24 05:18:43;;;;;;;17.65;11.57;;;11.20;99.90;;;;;;7369885;32;20189;-59
2022/09/24 05:22:48;;;;;;;19.30;11.70;;;11.20;99.90;;;;;;7354116;32;20217;-62
2022/09/24 05:27:08;;;;;;;18.00;11.90;;;11.20;99.90;;;;;;7361855;32;20120;-62
2022/09/24 05:31:10;;;;;;;18.80;11.90;;;11.20;99.90;;;;;;7363944;32;20220;-61
2022/09/24 05:35:12;;;;;;;15.40;12.02;;;11.20;99.90;;;;;;7376100;32;20253;-60
2022/09/24 05:39:14;;;;;;;16.10;11.95;;;11.30;99.90;;;;;;7379153;32;20729;-59
2022/09/24 05:43:18;;;;;;;16.87;11.00;;;11.30;99.90;;;;;;7366458;32;20209;-61
2022/09/24 05:47:19;;;;;;;13.10;10.52;;;11.30;99.90;;;;;;7362606;32;20478;-61
2022/09/24 05:51:21;;;;;;;13.57;9.68;;;11.30;99.90;;;;;;7359816;32;20257;-62
2022/09/24 05:55:23;;;;;;;15.55;10.38;;;11.30;99.90;;;;;;7353673;32;20208;-60
2022/09/24 05:59:31;;;;;;;12.90;9.50;;;11.30;99.90;;;;;;7357656;32;20218;-60
2022/09/24 06:03:32;;;;;;;12.90;10.02;;;11.50;99.90;;;;;;7366644;32;20220;-61
2022/09/24 06:07:34;;;;;;;15.98;10.32;;;11.40;99.90;;;;;;7367094;32;20244;-63
2022/09/24 06:11:36;;;;;;;14.85;10.70;;;11.50;99.90;;;;;;7363949;32;20186;-63
2022/09/24 06:15:41;;;;;;;13.62;10.55;;;11.50;99.90;;;;;;7357993;32;20126;-63
2022/09/24 06:19:43;;;;;;;14.57;10.25;;;11.50;99.90;;;;;;7353758;32;20213;-64
2022/09/24 06:23:45;;;;;;;13.57;10.38;;;11.60;99.90;;;;;;7366404;32;20189;-63
2022/09/24 06:28:02;;;;;;;15.05;10.43;;;11.60;99.90;;;;;;7369614;32;20202;-63
2022/09/24 06:32:03;;;;;;;15.17;10.60;;;11.70;99.90;;;;;;7366753;32;20130;-62
2022/09/24 06:36:05;;;;;;;12.37;9.80;;;11.80;99.90;;;;;;7362044;32;20139;-64
2022/09/24 06:40:08;;;;;;;13.00;10.00;;;11.90;99.90;;;;;;7361464;32;20186;-63
2022/09/24 06:44:10;;;;;;;16.45;10.15;;;11.90;99.90;;;;;;7358707;32;20146;-62
2022/09/24 06:48:13;;;;;;;12.30;10.32;;;12.10;99.90;;;;;;7372758;32;20114;-62
2022/09/24 06:52:15;;;;;;;14.57;9.95;;;12.20;99.90;;;;;;7361932;32;20444;-62
2022/09/24 06:56:17;;;;;;;11.63;10.38;;;12.40;99.90;;;;;;7390922;31;20115;-63
2022/09/24 07:00:19;;;;;;;15.57;10.93;;;12.60;99.90;;;;;;7374515;32;20111;-66
2022/09/24 07:04:20;;;;;;;13.98;10.35;;;12.80;99.90;;;;;;7372196;32;20137;-64
2022/09/24 07:08:22;;;;;;;16.92;11.02;;;12.90;99.90;;;;;;7374057;32;20107;-64
2022/09/24 07:12:24;;;;;;;14.73;10.57;;;13.10;99.90;;;;;;7359126;32;20115;-63
2022/09/24 07:16:25;;;;;;;13.32;10.50;;;13.20;99.90;;;;;;7351711;32;20220;-68
2022/09/24 07:20:27;;;;;;;15.20;10.23;;;13.30;99.90;;;;;;7364740;32;20164;-66
2022/09/24 07:24:29;;;;;;;11.98;10.48;;;13.40;99.90;;;;;;7367945;32;20236;-67
2022/09/24 07:28:31;;;;;;;14.45;10.32;;;13.40;99.90;;;;;;7361167;32;20234;-64
2022/09/24 07:32:32;;;;;;;15.77;11.55;;;13.40;99.90;;;;;;7370920;32;20108;-68
2022/09/24 07:36:34;;;;;;;18.37;10.82;;;13.40;99.90;;;;;;7368217;32;20240;-66
2022/09/24 07:40:36;;;;;;;13.35;10.20;;;13.40;99.90;;;;;;7376365;32;22297;-66
2022/09/24 07:44:37;;;;;;;14.15;10.63;;;13.30;99.90;;;;;;7366622;32;20263;-65
2022/09/24 07:48:39;;;;;;;12.70;10.90;;;13.40;99.90;;;;;;7368976;32;20686;-67
2022/09/24 07:52:41;;;;;;;14.45;11.85;;;13.40;99.90;;;;;;7366368;32;20137;-65
2022/09/24 07:56:42;;;;;;;15.82;11.10;;;13.50;99.90;;;;;;7370078;32;20124;-66
2022/09/24 08:00:44;;;;;;;15.73;11.35;;;13.60;99.90;;;;;;7367189;32;20110;-66
2022/09/24 08:04:47;;;;;;;15.70;11.75;;;13.80;99.90;;;;;;7364752;32;20224;-65
2022/09/24 08:08:49;;;;;;;13.57;11.70;;;13.90;99.90;;;;;;7368997;32;20527;-65
2022/09/24 08:12:51;;;;;;;16.75;12.18;;;13.90;99.90;;;;;;7367035;32;20226;-62
2022/09/24 08:16:53;;;;;;;14.10;10.65;;;14.00;99.90;;;;;;7383498;32;20110;-67
2022/09/24 08:20:54;;;;;;;15.57;12.23;;;14.00;99.90;;;;;;7375463;32;20217;-66
2022/09/24 08:24:56;;;;;;;16.98;12.25;;;14.10;99.90;;;;;;7380678;32;20144;-67
2022/09/24 08:28:58;;;;;;;15.80;11.80;;;14.20;99.90;;;;;;7373419;32;20125;-65
2022/09/24 08:33:00;;;;;;;16.08;11.70;;;14.20;99.90;;;;;;7379072;32;20107;-64
2022/09/24 08:37:02;;;;;;;16.27;11.88;;;14.30;99.90;;;;;;7377434;32;20186;-67
2022/09/24 08:41:20;;;;;;;17.75;13.60;;;14.50;99.90;;;;;;7387923;32;20160;-66
2022/09/24 08:49:48;;;;;;;17.62;12.05;;;14.80;99.90;;;;;;7372703;32;20107;-70
2022/09/24 08:53:56;;;;;;;21.65;11.77;;;15.00;99.90;;;;;;7376682;32;20110;-66
2022/09/24 08:58:07;;;;;;;16.87;12.27;;;15.10;99.90;;;;;;7376632;32;20177;-65
2022/09/24 09:02:34;;;;;;;14.05;11.98;;;15.10;99.90;;;;;;7375518;32;20111;-64
2022/09/24 09:07:00;;;;;;;16.23;12.73;;;15.20;99.90;;;;;;7371822;32;20554;-65
2022/09/24 09:11:06;;;;;;;13.20;11.68;;;15.30;99.90;;;;;;7366726;32;20244;-66
2022/09/24 09:15:14;;;;;;;14.20;10.82;;;15.20;99.90;;;;;;7366316;32;20134;-67
2022/09/24 09:19:17;;;;;;;15.48;11.45;;;15.40;99.90;;;;;;7365934;32;20208;-66
2022/09/24 09:23:35;;;;;;;13.00;10.88;;;15.50;99.90;;;;;;7377806;32;20484;-68
2022/09/24 09:27:37;;;;;;;15.25;11.55;;;15.60;99.90;;;;;;7372517;32;20118;-64
2022/09/24 09:32:15;;;;;;;17.08;11.45;;;15.60;99.90;;;;;;7362206;32;20150;-65
2022/09/24 09:36:44;;;;;;;18.08;11.40;;;15.70;99.90;;;;;;7364399;32;20122;-67
2022/09/24 09:40:56;;;;;;;15.85;12.65;;;15.80;99.90;;;;;;7366682;32;20260;-65
2022/09/24 09:45:14;;;;;;;21.60;11.95;;;15.70;99.90;;;;;;7366585;32;20111;-65
2022/09/24 09:49:17;;;;;;;17.55;11.77;;;15.90;99.90;;;;;;7368326;32;20126;-68
2022/09/24 09:53:20;;;;;;;20.75;12.98;;;16.00;99.90;;;;;;7365101;32;20100;-65
2022/09/24 09:57:23;;;;;;;14.32;12.30;;;16.40;99.90;;;;;;7365668;32;20111;-66
2022/09/24 10:01:31;;;;;;;15.20;11.35;;;16.70;99.90;;;;;;7363683;32;20115;-64
2022/09/24 10:05:34;;;;;;;14.23;10.80;;;17.30;99.90;;;;;;7361868;32;20236;-66
2022/09/24 10:09:37;;;;;;;13.48;10.05;;;17.20;99.90;;;;;;7363205;32;20190;-67
2022/09/24 10:13:38;;;;;;;14.93;9.68;;;18.40;99.90;;;;;;7373161;32;20140;-67
2022/09/24 10:17:41;;;;;;;10.35;8.90;;;19.00;99.90;;;;;;7363425;32;20115;-65
2022/09/24 10:21:43;;;;;;;10.85;8.23;;;19.00;99.90;;;;;;7360003;32;20112;-66
2022/09/24 10:25:58;;;;;;;10.93;8.30;;;19.50;99.90;;;;;;7363378;32;20161;-65
2022/09/24 10:34:26;;;;;;;8.18;6.30;;;19.10;99.90;;;;;;7360542;32;20102;-66
2022/09/24 10:38:28;;;;;;;9.82;6.53;;;18.90;99.90;;;;;;7360608;32;20108;-67
2022/09/24 10:42:30;;;;;;;9.60;6.78;;;18.50;99.90;;;;;;7366390;32;20116;-67
2022/09/24 10:46:53;;;;;;;10.63;7.32;;;18.30;99.90;;;;;;7367637;32;20543;-65
2022/09/24 10:51:10;;;;;;;11.68;6.87;;;18.20;99.90;;;;;;7355645;32;20194;-67
2022/09/24 10:55:52;;;;;;;8.82;7.53;;;18.10;99.90;;;;;;7358608;32;20225;-67
2022/09/24 11:00:22;;;;;;;10.27;7.95;;;17.70;99.90;;;;;;7364257;32;20107;-66
2022/09/24 11:04:49;;;;;;;7.82;7.00;;;17.50;99.90;;;;;;7365875;32;20928;-65
2022/09/24 11:09:06;;;;;;;10.20;8.00;;;17.40;99.90;;;;;;7360682;32;20106;-66
2022/09/24 11:13:29;;;;;;;12.52;8.25;;;17.20;99.90;;;;;;7379358;32;20114;-65
2022/09/24 11:17:59;;;;;;;8.98;7.45;;;17.00;99.90;;;;;;7368043;32;20122;-66
2022/09/24 11:22:13;;;;;;;11.10;8.13;;;16.80;99.90;;;;;;7373854;32;20122;-67
2022/09/24 11:26:38;;;;;;;10.52;9.38;;;16.70;99.90;;;;;;7359928;32;20224;-67
2022/09/24 11:30:55;;;;;;;9.43;8.05;;;16.50;99.90;;;;;;7361314;32;20182;-66
2022/09/24 11:35:34;;;;;;;11.65;7.62;;;16.30;99.90;;;;;;7356717;32;20208;-66
2022/09/24 11:39:54;;;;;;;13.05;9.27;;;16.40;99.90;;;;;;7367216;32;20269;-67
2022/09/24 11:44:10;;;;;;;12.75;9.68;;;16.50;99.90;;;;;;7364091;32;20197;-66
2022/09/24 11:48:15;;;;;;;14.75;9.63;;;16.60;99.90;;;;;;7369148;32;20111;-66
2022/09/24 11:52:42;;;;;;;10.02;8.60;;;16.50;99.90;;;;;;7373022;32;20216;-65
2022/09/24 11:56:49;;;;;;;11.90;8.77;;;16.50;99.90;;;;;;7373500;32;20114;-64
2022/09/24 12:00:58;;;;;;;10.93;7.97;;;16.50;99.90;;;;;;7364799;32;20126;-65
2022/09/24 12:05:04;;;;;;;10.35;7.28;;;16.60;99.90;;;;;;7367153;32;20579;-57
2022/09/24 12:09:22;;;;;;;11.43;7.22;;;16.60;99.90;;;;;;7375087;32;20567;-68
2022/09/24 12:13:31;;;;;;;10.68;6.68;;;16.50;99.90;;;;;;7373395;32;20191;-71
2022/09/24 12:17:43;;;;;;;10.57;6.87;;;16.40;99.90;;;;;;7382364;32;20213;-68
2022/09/24 12:21:48;;;;;;;7.68;6.25;;;16.30;99.90;;;;;;7376826;31;20202;-68
2022/09/24 12:25:52;;;;;;;9.57;6.62;;;16.30;99.90;;;;;;7380569;32;20193;-69
2022/09/24 12:34:48;;;;;;;8.32;6.55;;;16.10;99.90;;;;;;7383493;32;20855;-67
2022/09/24 12:39:05;;;;;;;7.90;6.25;;;16.10;99.90;;;;;;7372049;32;20578;-66
2022/09/24 12:43:25;;;;;;;9.95;6.32;;;16.10;99.90;;;;;;7378813;32;20314;-67
2022/09/24 12:47:30;;;;;;;8.32;6.72;;;16.10;99.90;;;;;;7373480;32;20107;-67
2022/09/24 12:51:37;;;;;;;7.70;6.50;;;16.00;99.90;;;;;;7376568;32;20137;-60
2022/09/24 12:55:44;;;;;;;8.18;6.37;;;16.00;99.90;;;;;;7367787;32;20467;-64
2022/09/24 12:59:52;;;;;;;;;;;16.10;99.90;;;;;;7374762;32;20133;-66
2022/09/24 13:04:24;;;;;;;;;;;16.10;99.90;;;;;;7377815;32;20006;-65
2022/09/24 13:08:40;;;;;;;9.15;6.78;;;16.10;99.90;;;;;;7382511;32;20110;-65
2022/09/24 13:12:43;;;;;;;8.52;6.95;;;16.20;99.90;;;;;;7394901;32;20193;-65
2022/09/24 13:16:52;;;;;;;10.15;7.07;;;16.20;99.90;;;;;;7392241;32;20548;-65
2022/09/24 13:20:59;;;;;;;8.45;6.75;;;16.10;99.90;;;;;;7398878;32;20096;-66
2022/09/24 13:25:08;;;;;;;8.65;6.60;;;16.10;99.90;;;;;;7386758;32;21421;-65
2022/09/24 13:29:24;;;;;;;9.73;7.10;;;16.20;99.90;;;;;;7384724;32;20140;-68
2022/09/24 13:33:28;;;;;;;10.45;7.03;;;16.10;99.90;;;;;;7389597;32;20237;-70
2022/09/24 13:37:40;;;;;;;9.25;7.55;;;16.10;99.90;;;;;;7387432;32;20190;-66
2022/09/24 13:42:02;;;;;;;9.52;7.45;;;16.00;99.90;;;;;;7378476;32;20218;-68
2022/09/24 13:46:14;;;;;;;9.20;7.25;;;16.00;99.90;;;;;;7386529;32;20221;-67
2022/09/24 13:50:27;;;;;;;10.10;7.75;;;16.00;99.90;;;;;;7384228;32;20558;-68
2022/09/24 13:54:35;;;;;;;8.20;6.80;;;16.10;99.90;;;;;;7391346;32;20233;-65
2022/09/24 13:58:38;;;;;;;11.12;8.02;;;16.10;99.90;;;;;;7377107;31;20677;-65
2022/09/24 14:02:42;;;;;;;10.13;7.47;;;16.00;99.90;;;;;;7391156;32;20181;-68
2022/09/24 14:06:53;;;;;;;9.43;7.53;;;16.10;99.90;;;;;;7378853;32;20189;-65
2022/09/24 14:11:10;;;;;;;8.77;7.75;;;16.00;99.90;;;;;;7385971;32;20817;-66
2022/09/24 14:15:14;;;;;;;10.10;8.15;;;15.90;99.90;;;;;;7391707;32;20166;-66
2022/09/24 14:19:16;;;;;;;12.68;8.35;;;16.00;99.90;;;;;;7397622;32;20106;-64
2022/09/24 14:23:23;;;;;;;13.52;8.50;;;15.80;99.90;;;;;;7393303;32;20256;-65
2022/09/24 14:27:27;;;;;;;13.90;9.75;;;15.80;99.90;;;;;;7387111;32;20197;-68
2022/09/24 14:31:29;;;;;;;11.75;9.80;;;15.80;99.90;;;;;;7389282;32;20118;-67
2022/09/24 14:35:36;;;;;;;12.70;9.07;;;15.70;99.90;;;;;;7379292;32;20254;-66
2022/09/24 14:39:42;;;;;;;;;;;15.60;99.90;;;;;;7387340;32;20190;-66
2022/09/24 14:43:49;;;;;;;10.77;8.10;;;15.70;99.90;;;;;;7391914;32;20081;-66
2022/09/24 14:48:05;;;;;;;9.98;8.63;;;15.60;99.90;;;;;;7387883;32;20125;-66
2022/09/24 14:52:31;;;;;;;11.18;8.65;;;15.50;99.90;;;;;;7380682;32;20212;-67
2022/09/24 14:56:33;;;;;;;10.25;8.35;;;15.50;99.90;;;;;;7387743;31;20207;-66
2022/09/24 15:00:46;;;;;;;11.30;7.78;;;15.50;99.90;;;;;;7387793;32;20177;-66
2022/09/24 15:04:52;;;;;;;10.43;8.00;;;15.50;99.90;;;;;;7382719;31;20114;-66
2022/09/24 15:09:18;;;;;;;10.70;8.65;;;15.40;99.90;;;;;;7391537;32;20212;-66
2022/09/24 15:13:27;;;;;;;11.10;8.65;;;15.40;99.90;;;;;;7377090;32;20229;-67
2022/09/24 15:17:31;;;;;;;10.68;8.55;;;15.60;99.90;;;;;;7370406;32;20186;-66
2022/09/24 15:21:33;;;;;;;10.63;8.15;;;15.40;99.90;;;;;;7386416;32;20229;-70
2022/09/24 15:25:35;;;;;;;10.60;7.37;;;15.40;99.90;;;;;;7381701;32;20252;-66
2022/09/24 15:29:37;;;;;;;10.27;7.55;;;15.40;99.90;;;;;;7382832;32;20207;-66
2022/09/24 15:33:38;;;;;;;10.85;8.30;;;15.40;99.90;;;;;;7388820;32;20190;-66
2022/09/24 15:37:41;;;;;;;9.48;6.87;;;15.30;99.90;;;;;;7386656;32;20106;-67
2022/09/24 15:41:42;;;;;;;9.50;7.22;;;15.30;99.90;;;;;;7392550;32;20511;-66
2022/09/24 15:45:44;;;;;;;10.77;7.40;;;15.30;99.90;;;;;;7390465;32;21182;-68
2022/09/24 15:49:46;;;;;;;10.02;7.93;;;15.40;99.90;;;;;;7390154;32;20114;-66
2022/09/24 15:53:49;;;;;;;10.55;7.87;;;15.30;99.90;;;;;;7386892;32;20224;-66
2022/09/24 15:57:50;;;;;;;13.50;8.35;;;15.30;99.90;;;;;;7400120;32;20125;-66
2022/09/24 16:01:56;;;;;;;12.63;8.38;;;15.20;99.90;;;;;;7383819;32;20199;-68
2022/09/24 16:05:59;;;;;;;12.23;8.70;;;15.30;99.90;;;;;;7383425;32;20205;-67
2022/09/24 16:10:01;;;;;;;10.45;9.10;;;15.10;99.90;;;;;;7385323;32;20273;-72
2022/09/24 16:14:02;;;;;;;9.20;8.05;;;15.00;99.90;;;;;;7381503;32;20261;-66
2022/09/24 16:18:05;;;;;;;11.07;7.87;;;15.00;99.90;;;;;;7394556;32;20109;-66
2022/09/24 16:22:07;;;;;;;10.25;8.65;;;14.90;99.90;;;;;;7390345;32;20202;-66
2022/09/24 16:26:09;;;;;;;10.52;7.87;;;14.90;99.90;;;;;;7395203;32;20521;-69
2022/09/24 16:30:10;;;;;;;11.18;9.57;;;14.90;99.90;;;;;;7384697;32;20636;-68
2022/09/24 16:34:12;;;;;;;9.20;8.20;;;14.90;99.90;;;;;;7399346;32;20653;-67
2022/09/24 16:38:15;;;;;;;13.55;10.05;;;14.80;99.90;;;;;;7386296;32;20178;-65
2022/09/24 16:42:25;;;;;;;13.60;10.02;;;14.80;99.90;;;;;;7398086;32;20129;-65
2022/09/24 16:46:26;;;;;;;12.93;10.13;;;14.70;99.90;;;;;;7383358;32;20103;-65
2022/09/24 16:50:28;;;;;;;13.38;8.73;;;14.70;99.90;;;;;;7399005;32;20170;-66
2022/09/24 16:54:31;;;;;;;14.70;9.70;;;14.70;99.90;;;;;;7398999;32;20194;-65
2022/09/24 16:58:33;;;;;;;12.63;10.75;;;14.70;99.90;;;;;;7389959;32;21756;-64
2022/09/24 17:02:35;;;;;;;12.63;9.80;;;14.60;99.90;;;;;;7395256;32;20169;-66
2022/09/24 17:06:39;;;;;;;13.68;9.70;;;14.50;99.90;;;;;;7395420;32;20580;-65
2022/09/24 17:10:50;;;;;;;13.60;11.23;;;14.40;99.90;;;;;;7399814;32;20126;-65
2022/09/24 17:15:00;;;;;;;12.30;10.10;;;14.40;99.90;;;;;;7396627;32;20148;-64
2022/09/24 17:19:02;;;;;;;12.93;10.32;;;14.40;99.90;;;;;;7392623;32;20111;-66
2022/09/24 17:23:05;;;;;;;14.38;10.75;;;14.30;99.90;;;;;;7400037;32;20186;-65
2022/09/24 17:27:07;;;;;;;13.60;10.35;;;14.20;99.90;;;;;;7388799;32;20149;-66
2022/09/24 17:31:10;;;;;;;14.50;11.18;;;14.20;99.90;;;;;;7388397;32;20135;-66
2022/09/24 17:35:13;;;;;;;14.32;12.25;;;14.10;99.90;;;;;;7377581;32;20107;-66
2022/09/24 17:39:15;;;;;;;15.93;13.15;;;14.10;99.90;;;;;;7398323;32;20136;-61
2022/09/24 17:43:17;;;;;;;15.80;13.38;;;14.00;99.90;;;;;;7393119;32;20204;-62
2022/09/24 17:47:18;;;;;;;18.65;14.20;;;14.00;99.90;;;;;;7396361;32;20132;-61
2022/09/24 17:51:24;;;;;;;18.85;14.82;;;13.90;99.90;;;;;;7392455;32;20737;-62
2022/09/24 17:55:26;;;;;;;18.35;13.77;;;13.90;99.90;;;;;;7398542;32;20129;-63
2022/09/24 17:59:28;;;;;;;17.77;13.45;;;13.90;99.90;;;;;;7387697;32;20236;-64
2022/09/24 18:03:29;;;;;;;13.30;11.90;;;14.10;99.90;;;;;;7393406;32;20210;-64
2022/09/24 18:07:31;;;;;;;15.55;12.02;;;13.90;99.90;;;;;;7397105;32;20713;-61
2022/09/24 18:11:47;;;;;;;13.90;11.35;;;13.90;99.90;;;;;;7396429;32;20569;-66
2022/09/24 18:15:48;;;;;;;12.20;10.88;;;14.00;99.90;;;;;;7395990;32;20482;-64
2022/09/24 18:19:50;;;;;;;14.32;11.60;;;13.90;99.90;;;;;;7403587;32;20106;-64
2022/09/24 18:23:53;;;;;;;15.10;10.88;;;13.90;99.90;;;;;;7398407;32;20132;-64
2022/09/24 18:27:59;;;;;;;13.75;11.27;;;13.80;99.90;;;;;;7404599;32;20137;-64
2022/09/24 18:32:01;;;;;;;12.10;10.32;;;13.80;99.90;;;;;;7395526;31;20140;-63
2022/09/24 18:36:05;;;;;;;15.90;11.27;;;13.70;99.90;;;;;;7398024;32;20753;-65
2022/09/24 18:40:09;;;;;;;13.82;10.70;;;13.80;99.90;;;;;;7390377;32;20103;-65
2022/09/24 18:44:10;;;;;;;14.77;10.80;;;13.70;99.90;;;;;;7397633;32;20136;-66
2022/09/24 18:48:12;;;;;;;15.05;11.32;;;13.70;99.90;;;;;;7395087;32;20198;-65
2022/09/24 18:52:14;;;;;;;13.50;10.93;;;13.70;99.90;;;;;;7392121;32;20118;-66
2022/09/24 18:56:15;;;;;;;14.87;10.73;;;13.60;99.90;;;;;;7390265;32;20154;-64
2022/09/24 19:04:38;;;;;;;13.25;11.10;;;13.60;99.90;;;;;;7398563;32;20231;-63
2022/09/24 19:08:40;;;;;;;15.27;10.80;;;13.60;99.90;;;;;;7391221;32;20099;-65
2022/09/24 19:12:42;;;;;;;12.02;9.85;;;13.50;99.90;;;;;;7393384;31;20145;-62
2022/09/24 19:16:44;;;;;;;15.65;10.70;;;13.50;99.90;;;;;;7389470;32;20122;-64
2022/09/24 19:20:49;;;;;;;13.25;10.45;;;13.50;99.90;;;;;;7391613;32;20125;-65
2022/09/24 19:24:51;;;;;;;12.77;10.18;;;13.40;99.90;;;;;;7394095;32;20110;-66
2022/09/24 19:28:53;;;;;;;16.50;10.27;;;13.40;99.90;;;;;;7390013;32;20127;-64
2022/09/24 19:32:56;;;;;;;16.17;10.88;;;13.40;99.90;;;;;;7394886;32;20233;-64
2022/09/24 19:36:58;;;;;;;12.75;10.27;;;13.40;99.90;;;;;;7393066;32;20198;-65
2022/09/24 19:41:18;;;;;;;14.77;11.35;;;13.30;99.90;;;;;;7394472;32;20540;-66
2022/09/24 19:45:19;;;;;;;14.20;11.52;;;13.30;99.90;;;;;;7391248;32;20130;-66
2022/09/24 19:49:22;;;;;;;13.95;10.25;;;13.20;99.90;;;;;;7395223;32;20221;-64
2022/09/24 19:53:24;;;;;;;12.60;10.02;;;13.20;99.90;;;;;;7388586;32;20106;-63
2022/09/24 19:57:26;;;;;;;13.52;10.90;;;13.20;99.90;;;;;;7396805;32;20198;-63
2022/09/24 20:01:30;;;;;;;15.60;10.48;;;13.20;99.90;;;;;;7375893;32;20186;-64
2022/09/24 20:05:32;;;;;;;16.12;11.00;;;13.10;99.90;;;;;;7385392;32;20249;-62
2022/09/24 20:09:34;;;;;;;13.80;10.23;;;13.10;99.90;;;;;;7389639;32;20274;-62
2022/09/24 20:13:38;;;;;;;13.95;10.18;;;13.10;99.90;;;;;;7364867;32;20213;-62
2022/09/24 20:17:39;;;;;;;14.68;10.05;;;13.00;99.90;;;;;;7389088;32;20128;-63
2022/09/24 20:21:41;;;;;;;12.80;10.05;;;13.00;99.90;;;;;;7383016;32;20137;-62
2022/09/24 20:30:09;;;;;;;12.18;10.27;;;13.00;99.90;;;;;;7388752;32;20222;-63
2022/09/24 20:34:11;;;;;;;14.20;10.10;;;12.90;99.90;;;;;;7391939;32;20193;-64
2022/09/24 20:38:12;;;;;;;11.43;10.18;;;12.90;99.90;;;;;;7392799;32;20119;-63
2022/09/24 20:42:14;;;;;;;15.27;12.98;;;12.90;99.90;;;;;;7395211;32;20123;-63
2022/09/24 20:46:22;;;;;;;16.60;12.32;;;12.80;99.90;;;;;;7394660;31;20283;-64
2022/09/24 20:50:24;;;;;;;17.05;12.75;;;12.90;99.90;;;;;;7391551;32;20205;-64
2022/09/24 20:54:27;;;;;;;19.83;14.70;;;12.80;99.90;;;;;;7392270;32;20189;-63
2022/09/24 20:58:29;;;;;;;17.27;14.32;;;12.90;99.90;;;;;;7387327;32;20651;-64
2022/09/24 21:02:31;;;;;;;20.92;16.50;;;12.80;99.90;;;;;;7391096;32;20513;-64
2022/09/24 21:06:37;;;;;;;21.40;16.92;;;12.90;99.90;;;;;;7392844;31;20178;-63
2022/09/24 21:10:39;;;;;;;19.20;16.50;;;12.80;99.90;;;;;;7371241;32;20236;-61
2022/09/24 21:14:40;;;;;;;21.75;16.85;;;12.80;99.90;;;;;;7401214;32;20110;-61
2022/09/24 21:18:45;;;;;;;22.40;16.98;;;12.80;99.90;;;;;;7399939;32;20129;-61
2022/09/24 21:22:48;;;;;;;19.98;17.73;;;12.90;99.90;;;;;;7395336;32;20111;-61
2022/09/24 21:26:49;;;;;;;24.05;19.27;;;12.90;99.90;;;;;;7384610;32;20106;-61
2022/09/24 21:31:02;;;;;;;23.80;19.50;;;12.80;99.90;;;;;;7392786;32;20514;-62